Time;durP1;ratioP1;P1;durP2;ratioP2;P2;SDS_P1;SDS_P2;PMS_P1;PMS_P2;Temp;Humidity;BMP_temperature;BMP_pressure;BME280_temperature;BME280_humidity;BME280_pressure;Samples;Min_cycle;Max_cycle;Signal;HPM_P1;HPM_P2
2021/09/24 00:00:28;;;;;;;14.38;10.65;;;13.80;99.90;;;;;;5053254;28;20029;-75
2021/09/24 00:02:54;;;;;;;15.13;10.30;;;13.80;99.90;;;;;;5052467;28;20118;-75
2021/09/24 00:05:20;;;;;;;14.18;10.27;;;13.90;99.90;;;;;;5040971;28;20033;-75
2021/09/24 00:07:46;;;;;;;13.02;9.60;;;13.80;99.90;;;;;;5044441;28;20040;-75
2021/09/24 00:10:12;;;;;;;15.10;9.23;;;13.90;99.90;;;;;;5051914;28;20088;-75
2021/09/24 00:12:39;;;;;;;13.80;8.52;;;13.90;99.90;;;;;;5051813;28;20090;-75
2021/09/24 00:15:09;;;;;;;13.40;8.45;;;13.90;99.90;;;;;;5041593;28;20123;-75
2021/09/24 00:17:35;;;;;;;11.00;8.27;;;14.00;99.90;;;;;;5053694;28;20505;-75
2021/09/24 00:20:01;;;;;;;10.82;8.27;;;14.00;99.90;;;;;;5052853;28;20053;-75
2021/09/24 00:22:26;;;;;;;15.93;8.85;;;14.10;99.90;;;;;;5053006;28;20075;-75
2021/09/24 00:24:52;;;;;;;12.38;8.00;;;14.10;99.90;;;;;;5052703;28;20096;-75
2021/09/24 00:27:18;;;;;;;11.38;7.00;;;14.10;99.90;;;;;;5053577;28;20037;-75
2021/09/24 00:29:43;;;;;;;13.40;7.82;;;14.10;99.90;;;;;;5052982;28;20815;-75
2021/09/24 00:32:09;;;;;;;14.02;8.13;;;14.10;99.90;;;;;;5053106;28;20040;-75
2021/09/24 00:34:35;;;;;;;10.95;7.57;;;14.10;99.90;;;;;;5052446;28;20029;-75
2021/09/24 00:37:01;;;;;;;10.95;8.00;;;14.00;99.90;;;;;;5053750;28;20043;-75
2021/09/24 00:39:27;;;;;;;9.98;7.15;;;13.90;99.90;;;;;;5052609;28;20083;-75
2021/09/24 00:41:52;;;;;;;10.50;6.72;;;13.90;99.90;;;;;;5053359;28;20033;-75
2021/09/24 00:44:18;;;;;;;9.52;6.65;;;13.90;99.90;;;;;;5052107;28;20400;-75
2021/09/24 00:46:44;;;;;;;10.23;7.32;;;13.90;99.90;;;;;;5053401;28;20029;-75
2021/09/24 00:49:12;;;;;;;12.40;7.32;;;13.80;99.90;;;;;;5052544;28;20605;-75
2021/09/24 00:51:37;;;;;;;9.63;6.63;;;13.50;99.90;;;;;;5052916;28;20021;-75
2021/09/24 00:54:03;;;;;;;11.40;7.32;;;13.40;99.90;;;;;;5052347;28;20468;-75
2021/09/24 00:56:30;;;;;;;11.48;7.22;;;13.50;99.90;;;;;;5052693;28;20033;-75
2021/09/24 00:58:56;;;;;;;10.63;7.38;;;13.50;99.90;;;;;;5053140;28;20032;-75
2021/09/24 01:01:21;;;;;;;12.02;8.40;;;13.50;99.90;;;;;;5051722;28;20167;-75
2021/09/24 01:03:48;;;;;;;11.45;7.95;;;13.60;99.90;;;;;;5051647;28;20118;-75
2021/09/24 01:06:14;;;;;;;10.73;7.60;;;13.50;99.90;;;;;;5045740;28;20073;-75
2021/09/24 01:08:40;;;;;;;11.27;7.07;;;13.40;99.90;;;;;;5051509;28;20032;-75
2021/09/24 01:11:06;;;;;;;12.23;7.38;;;13.40;99.90;;;;;;5036101;28;20060;-75
2021/09/24 01:13:31;;;;;;;11.63;6.85;;;13.40;99.90;;;;;;5050925;28;20045;-75
2021/09/24 01:15:57;;;;;;;10.93;7.45;;;13.50;99.90;;;;;;5051716;28;20036;-75
2021/09/24 01:18:25;;;;;;;10.38;7.35;;;13.50;99.90;;;;;;5052013;28;20033;-75
2021/09/24 01:20:55;;;;;;;9.65;7.75;;;13.50;99.90;;;;;;5052061;28;20490;-75
2021/09/24 01:23:21;;;;;;;12.63;8.35;;;13.40;99.90;;;;;;5052066;28;20106;-75
2021/09/24 01:25:48;;;;;;;10.25;7.72;;;13.40;99.90;;;;;;5051551;28;20587;-75
2021/09/24 01:28:13;;;;;;;10.57;7.88;;;13.30;99.90;;;;;;5052185;28;20029;-75
2021/09/24 01:30:39;;;;;;;12.02;8.50;;;13.30;99.90;;;;;;5052001;28;20025;-75
2021/09/24 01:33:05;;;;;;;10.23;8.10;;;13.40;99.90;;;;;;5051971;28;20935;-75
2021/09/24 01:35:31;;;;;;;11.50;7.97;;;13.40;99.90;;;;;;5051787;28;20045;-75
2021/09/24 01:37:56;;;;;;;12.23;8.65;;;13.40;99.90;;;;;;5052378;28;20096;-75
2021/09/24 01:40:22;;;;;;;12.45;8.45;;;13.40;99.90;;;;;;5051042;28;20466;-75
2021/09/24 01:42:53;;;;;;;13.40;8.38;;;13.50;99.90;;;;;;5051561;28;20036;-75
2021/09/24 01:45:19;;;;;;;10.07;7.53;;;13.50;99.90;;;;;;5051254;28;20029;-75
2021/09/24 01:47:44;;;;;;;9.38;7.30;;;13.50;99.90;;;;;;5051666;28;20037;-75
2021/09/24 01:50:11;;;;;;;10.35;7.68;;;13.60;99.90;;;;;;5052088;28;20499;-75
2021/09/24 01:52:37;;;;;;;13.35;8.20;;;13.90;99.90;;;;;;5033144;28;20434;-75
2021/09/24 01:55:04;;;;;;;12.15;8.07;;;13.90;99.90;;;;;;5051692;28;20529;-75
2021/09/24 01:57:30;;;;;;;14.43;7.38;;;14.00;99.90;;;;;;5050998;28;20535;-75
2021/09/24 01:59:55;;;;;;;13.75;7.18;;;14.00;99.90;;;;;;5051776;28;20037;-75
2021/09/24 02:02:21;;;;;;;9.50;7.38;;;13.90;99.90;;;;;;5050517;28;20499;-75
2021/09/24 02:04:47;;;;;;;10.73;7.20;;;13.90;99.90;;;;;;5051084;28;20391;-75
2021/09/24 02:07:12;;;;;;;13.00;7.38;;;13.80;99.90;;;;;;5050653;28;20052;-75
2021/09/24 02:09:38;;;;;;;10.10;7.13;;;13.80;99.90;;;;;;5052054;28;20036;-75
2021/09/24 02:12:04;;;;;;;12.88;8.05;;;13.90;99.90;;;;;;5036335;28;20037;-75
2021/09/24 02:14:30;;;;;;;11.60;7.75;;;13.80;99.90;;;;;;5049362;28;20032;-75
2021/09/24 02:16:56;;;;;;;9.88;7.20;;;13.80;99.90;;;;;;5049992;28;20044;-75
2021/09/24 02:19:21;;;;;;;10.05;7.28;;;13.80;99.90;;;;;;5050810;28;20191;-75
2021/09/24 02:21:47;;;;;;;10.10;7.18;;;13.60;99.90;;;;;;5051287;28;20032;-75
2021/09/24 02:24:13;;;;;;;11.75;8.35;;;13.60;99.90;;;;;;5050347;28;20029;-75
2021/09/24 02:26:39;;;;;;;12.95;7.85;;;13.70;99.90;;;;;;5051200;28;20554;-75
2021/09/24 02:29:05;;;;;;;13.93;8.68;;;13.50;99.90;;;;;;5051275;28;20365;-75
2021/09/24 02:31:31;;;;;;;10.23;7.65;;;13.60;99.90;;;;;;5050086;28;20095;-75
2021/09/24 02:33:56;;;;;;;10.80;7.65;;;13.60;99.90;;;;;;5050690;28;20064;-75
2021/09/24 02:36:22;;;;;;;10.63;7.60;;;13.70;99.90;;;;;;5050702;28;20382;-75
2021/09/24 02:38:49;;;;;;;9.82;7.13;;;13.60;99.90;;;;;;5050782;28;20025;-75
2021/09/24 02:41:15;;;;;;;11.43;7.15;;;13.80;99.90;;;;;;5050746;28;20090;-75
2021/09/24 02:43:41;;;;;;;9.15;6.93;;;13.60;99.90;;;;;;5050258;28;20029;-74
2021/09/24 02:46:07;;;;;;;11.95;7.00;;;13.60;99.90;;;;;;5050236;28;20029;-75
2021/09/24 02:48:32;;;;;;;11.23;7.30;;;13.60;99.90;;;;;;5050644;28;20025;-75
2021/09/24 02:50:58;;;;;;;10.38;7.10;;;13.70;99.90;;;;;;5050746;28;20494;-75
2021/09/24 02:53:24;;;;;;;10.00;7.03;;;13.80;99.90;;;;;;5049709;28;20384;-75
2021/09/24 02:55:50;;;;;;;18.13;8.27;;;13.70;99.90;;;;;;5050087;28;20025;-74
2021/09/24 02:58:16;;;;;;;10.43;7.45;;;13.80;99.90;;;;;;5050561;28;20033;-75
2021/09/24 03:00:42;;;;;;;10.60;6.75;;;13.90;99.90;;;;;;5051399;28;20375;-75
2021/09/24 03:03:07;;;;;;;8.45;6.47;;;13.80;99.90;;;;;;5035581;28;20029;-75
2021/09/24 03:05:35;;;;;;;11.13;7.35;;;13.90;99.90;;;;;;5042931;28;20041;-76
2021/09/24 03:08:02;;;;;;;9.13;6.70;;;13.80;99.90;;;;;;5043682;28;20037;-75
2021/09/24 03:10:28;;;;;;;10.13;7.00;;;13.80;99.90;;;;;;5043572;28;20048;-75
2021/09/24 03:12:54;;;;;;;11.57;6.95;;;13.70;99.90;;;;;;5024918;28;20099;-76
2021/09/24 03:15:19;;;;;;;9.32;7.13;;;13.50;99.90;;;;;;5039385;28;20040;-75
2021/09/24 03:17:45;;;;;;;9.55;6.57;;;13.40;99.90;;;;;;5041270;28;20052;-75
2021/09/24 03:20:12;;;;;;;8.45;6.43;;;13.60;99.90;;;;;;5041807;28;20124;-76
2021/09/24 03:22:38;;;;;;;10.20;6.38;;;13.70;99.90;;;;;;5043279;28;20020;-75
2021/09/24 03:25:05;;;;;;;10.02;5.88;;;13.80;99.90;;;;;;5044221;28;20480;-75
2021/09/24 03:27:32;;;;;;;9.30;6.68;;;13.70;99.90;;;;;;5046942;28;20132;-75
2021/09/24 03:29:58;;;;;;;12.50;5.78;;;13.80;99.90;;;;;;5049063;28;20025;-75
2021/09/24 03:32:23;;;;;;;9.30;6.00;;;13.80;99.90;;;;;;5049794;28;20037;-75
2021/09/24 03:34:50;;;;;;;9.05;6.10;;;13.60;99.90;;;;;;5049641;28;20402;-75
2021/09/24 03:37:16;;;;;;;9.93;5.88;;;13.40;99.90;;;;;;5049485;28;20021;-75
2021/09/24 03:39:42;;;;;;;9.48;6.45;;;13.40;99.90;;;;;;5050089;28;20025;-75
2021/09/24 03:42:09;;;;;;;9.48;6.60;;;13.30;99.90;;;;;;5049876;28;20079;-75
2021/09/24 03:44:36;;;;;;;7.80;5.80;;;13.10;99.90;;;;;;5049621;28;20101;-75
2021/09/24 03:47:02;;;;;;;9.57;6.28;;;13.10;99.90;;;;;;5049213;28;20506;-76
2021/09/24 03:49:28;;;;;;;10.57;6.88;;;13.10;99.90;;;;;;5049313;28;20028;-75
2021/09/24 03:51:54;;;;;;;8.20;5.93;;;13.00;99.90;;;;;;5049570;28;20025;-75
2021/09/24 03:54:20;;;;;;;8.93;6.25;;;12.90;99.90;;;;;;5049638;28;20475;-75
2021/09/24 03:56:46;;;;;;;9.32;6.45;;;12.70;99.90;;;;;;5049808;28;20033;-76
2021/09/24 03:59:13;;;;;;;10.82;7.25;;;12.70;99.90;;;;;;5029853;28;20038;-75
2021/09/24 04:01:40;;;;;;;8.70;6.03;;;12.60;99.90;;;;;;5028881;28;20026;-75
2021/09/24 04:04:06;;;;;;;8.45;6.22;;;12.70;99.90;;;;;;5046274;28;20514;-76
2021/09/24 04:06:32;;;;;;;10.70;6.90;;;12.80;99.90;;;;;;5047852;28;20053;-75
2021/09/24 04:08:58;;;;;;;8.70;6.28;;;12.60;99.90;;;;;;5046911;28;20717;-75
2021/09/24 04:11:24;;;;;;;9.43;5.93;;;12.40;99.90;;;;;;5047692;28;20115;-75
2021/09/24 04:13:50;;;;;;;10.23;6.30;;;12.50;99.90;;;;;;5047011;28;20618;-76
2021/09/24 04:16:17;;;;;;;10.65;6.38;;;12.40;99.90;;;;;;5048101;28;20045;-75
2021/09/24 04:18:43;;;;;;;8.18;6.25;;;12.50;99.90;;;;;;5048217;28;20032;-76
2021/09/24 04:21:09;;;;;;;8.68;6.13;;;12.70;99.90;;;;;;5049288;28;20033;-75
2021/09/24 04:23:35;;;;;;;10.30;5.68;;;12.70;99.90;;;;;;5048758;28;20036;-75
2021/09/24 04:26:01;;;;;;;10.38;6.68;;;12.70;99.90;;;;;;5049432;28;20025;-75
2021/09/24 04:28:27;;;;;;;9.77;6.03;;;12.60;99.90;;;;;;5030372;28;20087;-75
2021/09/24 04:30:53;;;;;;;10.27;5.80;;;12.80;99.90;;;;;;5048931;28;20037;-75
2021/09/24 04:33:18;;;;;;;10.38;6.18;;;12.80;99.90;;;;;;5048281;28;20542;-75
2021/09/24 04:35:44;;;;;;;11.60;7.10;;;12.80;99.90;;;;;;5048797;28;20467;-75
2021/09/24 04:38:10;;;;;;;9.65;6.50;;;12.80;99.90;;;;;;5030031;28;20029;-75
2021/09/24 04:40:36;;;;;;;9.45;7.22;;;12.70;99.90;;;;;;5048755;28;20033;-75
2021/09/24 04:43:02;;;;;;;8.98;6.55;;;12.60;99.90;;;;;;5048093;28;20056;-75
2021/09/24 04:45:28;;;;;;;9.73;6.97;;;12.60;99.90;;;;;;5030353;28;20031;-75
2021/09/24 04:47:54;;;;;;;8.88;6.78;;;12.50;99.90;;;;;;5048145;28;20395;-75
2021/09/24 04:50:19;;;;;;;10.57;6.70;;;12.60;99.90;;;;;;5048441;28;20048;-76
2021/09/24 04:52:45;;;;;;;12.15;6.45;;;12.70;99.90;;;;;;5043829;28;20506;-75
2021/09/24 04:55:11;;;;;;;9.90;6.53;;;12.50;99.90;;;;;;5048351;28;20061;-75
2021/09/24 04:57:37;;;;;;;10.23;6.53;;;12.40;99.90;;;;;;5048675;28;20025;-75
2021/09/24 05:00:05;;;;;;;9.57;6.50;;;12.40;99.90;;;;;;5032689;28;20624;-75
2021/09/24 05:02:31;;;;;;;10.48;6.35;;;12.30;99.90;;;;;;5047543;28;20128;-75
2021/09/24 05:04:57;;;;;;;9.00;6.15;;;12.30;99.90;;;;;;5043927;28;20427;-75
2021/09/24 05:07:22;;;;;;;9.20;5.53;;;12.10;99.90;;;;;;5042442;28;20049;-76
2021/09/24 05:09:48;;;;;;;8.93;6.18;;;12.10;99.90;;;;;;5045708;28;20017;-75
2021/09/24 05:12:13;;;;;;;10.98;7.47;;;12.10;99.90;;;;;;5046285;28;20037;-75
2021/09/24 05:14:39;;;;;;;10.55;7.40;;;12.00;99.90;;;;;;5046189;28;20029;-75
2021/09/24 05:17:05;;;;;;;9.38;6.35;;;12.00;99.90;;;;;;5046593;28;20624;-75
2021/09/24 05:19:31;;;;;;;8.50;5.95;;;12.20;99.90;;;;;;5048023;28;20040;-75
2021/09/24 05:21:56;;;;;;;9.98;6.53;;;12.10;99.90;;;;;;5045398;28;20044;-75
2021/09/24 05:24:22;;;;;;;10.52;6.22;;;12.00;99.90;;;;;;5045272;28;20044;-75
2021/09/24 05:26:48;;;;;;;8.95;5.60;;;12.00;99.90;;;;;;5028885;28;20032;-76
2021/09/24 05:29:14;;;;;;;8.07;5.88;;;12.10;99.90;;;;;;5047722;28;20017;-75
2021/09/24 05:31:39;;;;;;;8.35;5.82;;;12.10;99.90;;;;;;5047751;28;20029;-75
2021/09/24 05:34:05;;;;;;;10.32;6.18;;;12.00;99.90;;;;;;5053483;28;20496;-76
2021/09/24 05:36:31;;;;;;;9.77;5.63;;;12.00;99.90;;;;;;5047869;28;20032;-75
2021/09/24 05:38:57;;;;;;;10.02;6.28;;;12.10;99.90;;;;;;5046874;28;20079;-73
2021/09/24 05:41:23;;;;;;;8.05;6.25;;;12.10;99.90;;;;;;5049104;28;20033;-76
2021/09/24 05:43:50;;;;;;;9.48;6.50;;;12.20;99.90;;;;;;5052611;28;20029;-75
2021/09/24 05:46:17;;;;;;;9.02;5.72;;;12.20;99.90;;;;;;5044733;28;20544;-76
2021/09/24 05:48:43;;;;;;;11.32;6.25;;;12.20;99.90;;;;;;5044281;28;20027;-76
2021/09/24 05:51:09;;;;;;;8.57;6.35;;;12.30;99.90;;;;;;5043498;28;20029;-75
2021/09/24 05:53:35;;;;;;;8.23;5.20;;;12.20;99.90;;;;;;5044061;28;20455;-75
2021/09/24 05:56:00;;;;;;;7.78;6.10;;;12.20;99.90;;;;;;5044995;28;20079;-74
2021/09/24 05:58:26;;;;;;;11.20;6.22;;;12.20;99.90;;;;;;5044182;28;20079;-74
2021/09/24 06:00:51;;;;;;;9.52;6.03;;;12.20;99.90;;;;;;5042500;28;20063;-74
2021/09/24 06:03:18;;;;;;;9.48;5.65;;;12.10;99.90;;;;;;5042291;28;20084;-74
2021/09/24 06:05:43;;;;;;;8.05;5.22;;;11.90;99.90;;;;;;5042079;28;20921;-74
2021/09/24 06:08:09;;;;;;;10.02;5.75;;;11.90;99.90;;;;;;5042278;28;20128;-74
2021/09/24 06:10:38;;;;;;;8.48;5.20;;;12.00;99.90;;;;;;5042159;28;20037;-75
2021/09/24 06:13:04;;;;;;;8.20;5.57;;;12.30;99.90;;;;;;5041960;28;20116;-75
2021/09/24 06:15:33;;;;;;;8.80;5.72;;;12.20;99.90;;;;;;5024588;28;20124;-74
2021/09/24 06:17:58;;;;;;;9.45;5.35;;;12.10;99.90;;;;;;5042431;28;20031;-74
2021/09/24 06:20:24;;;;;;;7.75;5.25;;;12.10;99.90;;;;;;5043597;28;20550;-74
2021/09/24 06:22:51;;;;;;;10.52;5.80;;;12.20;99.90;;;;;;5044233;28;20048;-75
2021/09/24 06:25:17;;;;;;;8.65;5.82;;;12.20;99.90;;;;;;5043221;28;20398;-74
2021/09/24 06:27:43;;;;;;;10.18;5.38;;;12.20;99.90;;;;;;5043933;28;20029;-76
2021/09/24 06:30:12;;;;;;;9.02;5.53;;;12.40;99.90;;;;;;5043678;28;20036;-74
2021/09/24 06:32:38;;;;;;;7.95;5.30;;;12.50;99.90;;;;;;5044022;28;20128;-75
2021/09/24 06:35:06;;;;;;;9.75;5.50;;;12.50;99.90;;;;;;5043268;28;20136;-74
2021/09/24 06:37:32;;;;;;;9.75;4.78;;;12.50;99.90;;;;;;5025697;28;20089;-74
2021/09/24 06:39:57;;;;;;;7.13;5.32;;;12.50;99.90;;;;;;5043407;28;20394;-74
2021/09/24 06:42:23;;;;;;;10.52;6.47;;;12.40;99.90;;;;;;5043979;28;20079;-74
2021/09/24 06:44:49;;;;;;;9.23;6.55;;;12.40;99.90;;;;;;5043310;28;20361;-74
2021/09/24 06:47:17;;;;;;;7.75;5.20;;;12.50;99.90;;;;;;5043111;28;20513;-74
2021/09/24 06:49:43;;;;;;;9.32;5.40;;;12.50;99.90;;;;;;5043662;28;20462;-74
2021/09/24 06:52:08;;;;;;;9.30;5.35;;;12.60;99.90;;;;;;5043331;28;20505;-74
2021/09/24 06:54:34;;;;;;;8.63;5.50;;;12.60;99.90;;;;;;5043530;28;20029;-73
2021/09/24 06:57:02;;;;;;;8.27;5.50;;;12.50;99.90;;;;;;5042940;28;20063;-74
2021/09/24 06:59:27;;;;;;;10.25;6.13;;;12.60;99.90;;;;;;5043733;28;20070;-74
2021/09/24 07:01:53;;;;;;;11.85;6.10;;;12.70;99.90;;;;;;5034129;28;20036;-74
2021/09/24 07:04:19;;;;;;;9.80;6.38;;;12.70;99.90;;;;;;5041897;28;20044;-74
2021/09/24 07:06:44;;;;;;;10.25;7.07;;;12.70;99.90;;;;;;5041474;28;20060;-74
2021/09/24 07:09:10;;;;;;;8.55;6.35;;;12.80;99.90;;;;;;5041753;28;20033;-74
2021/09/24 07:11:36;;;;;;;8.00;5.70;;;12.90;99.90;;;;;;5041994;28;20036;-74
2021/09/24 07:14:08;;;;;;;11.82;5.97;;;12.90;99.90;;;;;;5041426;28;20395;-73
2021/09/24 07:16:35;;;;;;;8.65;5.50;;;12.90;99.90;;;;;;5023065;28;20036;-74
2021/09/24 07:19:02;;;;;;;8.52;5.80;;;12.90;99.90;;;;;;5041775;28;20078;-74
2021/09/24 07:21:27;;;;;;;8.00;5.55;;;12.90;99.90;;;;;;5043028;28;20063;-74
2021/09/24 07:23:53;;;;;;;8.90;5.47;;;13.10;99.90;;;;;;5043291;28;20013;-74
2021/09/24 07:26:18;;;;;;;10.82;6.05;;;13.20;99.90;;;;;;5042959;28;20029;-74
2021/09/24 07:28:44;;;;;;;11.20;5.25;;;13.20;99.90;;;;;;5042603;28;20059;-74
2021/09/24 07:31:11;;;;;;;7.50;5.10;;;13.30;99.90;;;;;;5041762;28;20029;-74
2021/09/24 07:33:37;;;;;;;9.30;4.97;;;13.30;99.90;;;;;;5039623;28;20036;-74
2021/09/24 07:36:03;;;;;;;8.52;5.25;;;13.40;99.90;;;;;;5043139;28;20083;-75
2021/09/24 07:38:28;;;;;;;9.65;5.00;;;13.50;99.90;;;;;;5043460;28;20032;-74
2021/09/24 07:40:54;;;;;;;9.05;4.97;;;13.50;99.90;;;;;;5043923;28;20108;-74
2021/09/24 07:43:20;;;;;;;9.02;4.90;;;13.50;99.90;;;;;;5043269;28;20059;-73
2021/09/24 07:45:45;;;;;;;7.32;4.97;;;13.50;99.90;;;;;;5043653;28;20029;-74
2021/09/24 07:48:11;;;;;;;8.55;4.45;;;13.50;99.90;;;;;;5043026;28;20110;-75
2021/09/24 07:50:37;;;;;;;9.02;5.50;;;13.50;99.90;;;;;;5025503;28;20029;-74
2021/09/24 07:53:03;;;;;;;8.60;5.15;;;13.60;99.90;;;;;;5042953;28;20144;-74
2021/09/24 07:55:29;;;;;;;6.30;4.70;;;13.60;99.90;;;;;;5043450;28;20025;-75
2021/09/24 07:57:57;;;;;;;8.57;4.38;;;13.60;99.90;;;;;;5043242;28;20104;-75
2021/09/24 08:00:25;;;;;;;6.65;4.45;;;13.70;99.90;;;;;;5043103;28;20100;-74
2021/09/24 08:02:51;;;;;;;7.63;4.40;;;13.70;99.90;;;;;;5032293;28;20033;-74
2021/09/24 08:05:17;;;;;;;7.07;5.45;;;13.70;99.90;;;;;;5041622;28;20032;-74
2021/09/24 08:07:43;;;;;;;7.25;4.38;;;13.80;99.90;;;;;;5041714;28;20460;-74
2021/09/24 08:10:10;;;;;;;7.90;5.03;;;13.90;99.90;;;;;;5040981;28;20036;-74
2021/09/24 08:12:35;;;;;;;8.68;4.65;;;13.90;99.90;;;;;;5041312;28;20041;-75
2021/09/24 08:15:01;;;;;;;8.13;4.78;;;14.00;99.90;;;;;;5044647;28;20036;-74
2021/09/24 08:17:27;;;;;;;6.75;4.68;;;14.10;99.90;;;;;;5042698;28;20029;-74
2021/09/24 08:19:53;;;;;;;7.55;4.10;;;14.00;99.90;;;;;;5034573;28;20041;-74
2021/09/24 08:22:18;;;;;;;8.48;5.05;;;14.00;99.90;;;;;;5045886;28;20032;-74
2021/09/24 08:24:44;;;;;;;15.68;6.00;;;14.00;99.90;;;;;;5046479;28;20064;-74
2021/09/24 08:27:11;;;;;;;6.80;4.18;;;14.10;99.90;;;;;;5046663;28;20033;-74
2021/09/24 08:29:37;;;;;;;8.10;4.22;;;14.20;99.90;;;;;;5046034;28;20024;-74
2021/09/24 08:32:03;;;;;;;9.02;4.35;;;14.20;99.90;;;;;;5045350;28;20118;-74
2021/09/24 08:34:29;;;;;;;7.75;4.65;;;14.30;99.90;;;;;;5046839;28;20219;-74
2021/09/24 08:36:55;;;;;;;10.55;4.38;;;14.40;99.90;;;;;;5046640;28;20033;-74
2021/09/24 08:39:21;;;;;;;6.57;4.07;;;14.50;99.90;;;;;;5046485;28;20040;-73
2021/09/24 08:41:46;;;;;;;7.55;4.47;;;14.60;99.90;;;;;;5045380;28;20025;-74
2021/09/24 08:44:12;;;;;;;7.55;4.68;;;14.70;99.90;;;;;;5046328;28;20106;-74
2021/09/24 08:46:38;;;;;;;7.90;5.10;;;14.80;99.90;;;;;;5045980;28;20487;-73
2021/09/24 08:49:05;;;;;;;6.57;4.25;;;14.70;99.90;;;;;;5045631;28;20099;-74
2021/09/24 08:51:31;;;;;;;6.75;4.38;;;14.70;99.90;;;;;;5044974;28;20029;-74
2021/09/24 08:53:57;;;;;;;8.38;4.70;;;14.80;99.90;;;;;;5046138;28;20072;-74
2021/09/24 08:56:23;;;;;;;9.13;4.35;;;14.80;99.90;;;;;;5046229;28;20107;-74
2021/09/24 08:58:49;;;;;;;5.95;3.90;;;14.80;99.90;;;;;;5045865;28;20036;-74
2021/09/24 09:01:15;;;;;;;7.35;4.50;;;14.90;99.90;;;;;;5045118;28;20538;-75
2021/09/24 09:03:46;;;;;;;9.32;4.18;;;15.00;99.90;;;;;;5045637;28;20029;-74
2021/09/24 09:06:15;;;;;;;11.10;4.20;;;15.10;99.90;;;;;;5045248;28;20060;-75
2021/09/24 09:08:42;;;;;;;9.38;3.80;;;15.10;99.90;;;;;;5045558;28;20391;-75
2021/09/24 09:11:14;;;;;;;6.95;4.40;;;15.10;99.90;;;;;;5045750;28;20029;-74
2021/09/24 09:13:46;;;;;;;6.15;4.43;;;15.20;99.90;;;;;;5044618;28;20037;-74
2021/09/24 09:16:24;;;;;;;8.27;4.57;;;15.50;99.90;;;;;;5045087;28;20025;-74
2021/09/24 09:19:02;;;;;;;7.20;3.90;;;16.10;99.90;;;;;;5042036;28;20021;-75
2021/09/24 09:21:28;;;;;;;7.68;3.53;;;16.50;99.50;;;;;;5024506;28;20038;-75
2021/09/24 09:23:55;;;;;;;5.00;3.47;;;16.70;98.80;;;;;;5036925;28;20613;-76
2021/09/24 09:26:23;;;;;;;7.45;3.53;;;16.90;99.00;;;;;;5043305;28;20121;-75
2021/09/24 09:28:56;;;;;;;6.70;3.33;;;16.80;98.40;;;;;;5043868;28;20037;-76
2021/09/24 09:31:32;;;;;;;7.32;4.00;;;16.90;98.60;;;;;;5043908;28;20029;-75
2021/09/24 09:34:00;;;;;;;6.63;3.55;;;17.00;98.40;;;;;;5042556;28;20029;-75
2021/09/24 09:36:29;;;;;;;6.00;3.58;;;17.10;98.20;;;;;;5043909;28;20380;-75
2021/09/24 09:38:56;;;;;;;7.40;3.53;;;17.10;98.50;;;;;;5043987;28;20391;-75
2021/09/24 09:41:23;;;;;;;5.93;3.67;;;17.10;98.30;;;;;;5044491;28;20112;-75
2021/09/24 09:43:54;;;;;;;6.10;3.63;;;17.20;98.70;;;;;;5044531;28;20028;-74
2021/09/24 09:46:25;;;;;;;5.55;3.70;;;17.20;98.10;;;;;;5044766;28;20486;-75
2021/09/24 09:49:10;;;;;;;10.07;4.25;;;17.20;98.00;;;;;;5044268;28;20033;-75
2021/09/24 09:51:39;;;;;;;5.63;3.50;;;17.10;97.90;;;;;;5044522;28;20049;-75
2021/09/24 09:54:06;;;;;;;6.90;4.25;;;17.20;98.90;;;;;;5044688;28;20376;-74
2021/09/24 09:56:45;;;;;;;6.75;3.72;;;17.10;97.40;;;;;;5043710;28;20033;-74
2021/09/24 09:59:30;;;;;;;9.85;3.80;;;17.00;97.40;;;;;;5044072;28;20028;-74
2021/09/24 10:02:20;;;;;;;5.03;2.92;;;17.20;97.40;;;;;;5044414;28;20120;-74
2021/09/24 10:04:53;;;;;;;5.60;3.40;;;17.30;97.00;;;;;;5044086;28;20091;-74
2021/09/24 10:07:20;;;;;;;6.63;3.40;;;17.70;96.80;;;;;;5043490;28;20063;-75
2021/09/24 10:09:47;;;;;;;7.50;3.80;;;17.70;96.80;;;;;;5044507;28;20028;-75
2021/09/24 10:12:19;;;;;;;6.13;3.70;;;17.70;97.10;;;;;;5043817;28;20075;-74
2021/09/24 10:14:44;;;;;;;11.00;4.68;;;17.70;98.20;;;;;;5044441;28;20039;-76
2021/09/24 10:17:10;;;;;;;7.00;4.32;;;17.80;97.40;;;;;;5043367;28;20033;-75
2021/09/24 10:19:36;;;;;;;7.80;3.85;;;17.80;97.50;;;;;;5038087;28;20030;-74
2021/09/24 10:22:02;;;;;;;5.80;3.55;;;17.90;97.10;;;;;;5034251;28;20037;-74
2021/09/24 10:24:28;;;;;;;10.57;4.43;;;17.80;97.10;;;;;;5043450;28;20033;-74
2021/09/24 10:27:02;;;;;;;8.98;3.80;;;17.80;96.90;;;;;;5042643;28;20036;-75
2021/09/24 10:29:32;;;;;;;;;;;18.10;97.60;;;;;;5044678;28;20039;-75
2021/09/24 10:32:13;;;;;;;6.88;3.33;;;18.40;96.70;;;;;;5042507;28;19909;-75
2021/09/24 10:34:57;;;;;;;6.68;3.38;;;18.30;96.20;;;;;;5044112;28;20890;-74
2021/09/24 10:37:25;;;;;;;6.47;3.33;;;18.50;96.60;;;;;;5042817;28;20032;-74
2021/09/24 10:39:58;;;;;;;5.63;3.42;;;18.80;96.30;;;;;;5043735;28;20561;-75
2021/09/24 10:42:32;;;;;;;6.28;3.78;;;18.90;95.20;;;;;;5043516;28;20868;-75
2021/09/24 10:45:09;;;;;;;9.50;3.90;;;18.90;95.80;;;;;;5043951;28;20102;-75
2021/09/24 10:48:03;;;;;;;5.85;3.35;;;19.00;95.10;;;;;;5042591;28;20056;-75
2021/09/24 10:50:32;;;;;;;6.63;3.13;;;18.90;93.90;;;;;;5043491;28;20558;-75
2021/09/24 10:53:21;;;;;;;4.40;2.88;;;19.00;93.90;;;;;;5043051;28;20979;-74
2021/09/24 10:55:53;;;;;;;5.95;3.08;;;18.90;94.40;;;;;;5043469;28;20029;-74
2021/09/24 10:58:28;;;;;;;8.35;3.20;;;19.10;94.00;;;;;;5042884;28;20375;-75
2021/09/24 11:00:56;;;;;;;7.22;3.45;;;19.10;93.50;;;;;;5043579;28;20017;-75
2021/09/24 11:03:23;;;;;;;8.40;3.40;;;19.20;94.20;;;;;;5042037;28;20025;-76
2021/09/24 11:06:06;;;;;;;4.13;2.42;;;19.50;94.40;;;;;;5043414;28;20057;-77
2021/09/24 11:08:36;;;;;;;14.43;3.95;;;19.60;94.00;;;;;;5042598;28;20045;-75
2021/09/24 11:11:21;;;;;;;4.85;3.08;;;19.80;94.20;;;;;;5044391;28;20021;-75
2021/09/24 11:13:49;;;;;;;8.00;3.72;;;19.70;93.30;;;;;;5044177;28;20032;-75
2021/09/24 11:16:17;;;;;;;5.10;2.97;;;19.80;93.80;;;;;;5043790;28;20025;-76
2021/09/24 11:18:48;;;;;;;5.47;2.88;;;19.90;93.80;;;;;;5038048;28;20564;-76
2021/09/24 11:21:19;;;;;;;4.90;3.22;;;20.00;93.80;;;;;;5042213;28;20025;-75
2021/09/24 11:23:46;;;;;;;5.65;3.70;;;20.10;93.40;;;;;;5041689;28;20942;-75
2021/09/24 11:26:14;;;;;;;5.70;3.20;;;20.30;93.50;;;;;;5040965;28;20039;-76
2021/09/24 11:28:43;;;;;;;8.00;3.17;;;20.10;92.10;;;;;;5041589;28;20041;-75
2021/09/24 11:31:10;;;;;;;6.30;2.80;;;20.10;92.10;;;;;;5041488;28;20035;-76
2021/09/24 11:33:40;;;;;;;5.45;2.95;;;20.20;92.10;;;;;;5042170;28;20722;-75
2021/09/24 11:36:07;;;;;;;7.78;2.90;;;20.40;92.70;;;;;;5042365;28;20108;-72
2021/09/24 11:38:35;;;;;;;4.88;3.08;;;20.50;92.70;;;;;;5042723;28;20428;-76
2021/09/24 11:41:02;;;;;;;6.57;3.35;;;20.50;92.50;;;;;;5043172;28;20109;-75
2021/09/24 11:43:31;;;;;;;24.60;4.50;;;20.50;93.00;;;;;;5042970;28;20029;-77
2021/09/24 11:45:59;;;;;;;6.38;3.00;;;20.70;93.20;;;;;;5042443;28;20021;-76
2021/09/24 11:48:32;;;;;;;5.47;2.75;;;20.70;92.40;;;;;;5045248;28;20383;-76
2021/09/24 11:51:12;;;;;;;5.53;2.80;;;20.90;93.20;;;;;;5046405;28;20029;-76
2021/09/24 11:53:54;;;;;;;6.00;3.25;;;20.90;93.10;;;;;;5046763;28;20043;-75
2021/09/24 11:56:32;;;;;;;5.25;3.17;;;21.10;92.00;;;;;;5046507;28;20020;-76
2021/09/24 11:59:12;;;;;;;7.13;3.05;;;21.00;91.60;;;;;;5047133;28;20044;-76
2021/09/24 12:01:43;;;;;;;6.57;2.95;;;20.90;92.50;;;;;;5027386;28;20448;-75
2021/09/24 12:04:10;;;;;;;7.05;2.50;;;21.20;92.40;;;;;;5045886;28;20021;-75
2021/09/24 12:06:37;;;;;;;6.65;2.92;;;21.20;92.30;;;;;;5029834;28;20064;-77
2021/09/24 12:09:08;;;;;;;5.15;2.95;;;21.20;92.40;;;;;;5046788;28;20501;-75
2021/09/24 12:11:48;;;;;;;4.55;3.08;;;21.30;92.20;;;;;;5045947;28;20032;-76
2021/09/24 12:14:15;;;;;;;5.80;2.90;;;21.30;92.20;;;;;;5045832;28;20033;-76
2021/09/24 12:16:43;;;;;;;5.25;2.85;;;21.10;91.80;;;;;;5046663;28;20613;-77
2021/09/24 12:19:25;;;;;;;5.93;2.90;;;21.10;91.80;;;;;;5042862;28;20675;-76
2021/09/24 12:22:04;;;;;;;6.82;3.13;;;20.70;92.00;;;;;;5026409;28;20022;-76
2021/09/24 12:24:37;;;;;;;5.68;3.13;;;20.90;93.10;;;;;;5032289;28;20726;-76
2021/09/24 12:27:10;;;;;;;5.90;2.72;;;21.10;92.70;;;;;;5045054;28;20017;-76
2021/09/24 12:29:39;;;;;;;3.97;2.13;;;21.30;92.60;;;;;;5045290;28;20704;-77
2021/09/24 12:32:30;;;;;;;4.43;2.70;;;21.20;92.20;;;;;;5044819;28;20479;-76
2021/09/24 12:35:03;;;;;;;5.13;2.95;;;21.20;92.30;;;;;;5044108;28;20601;-76
2021/09/24 12:37:41;;;;;;;5.05;2.92;;;21.50;91.20;;;;;;5044934;28;20036;-76
2021/09/24 12:40:11;;;;;;;5.88;3.17;;;21.30;91.50;;;;;;5046060;28;20021;-76
2021/09/24 12:42:45;;;;;;;4.15;2.58;;;21.50;90.90;;;;;;5046349;28;20598;-76
2021/09/24 12:45:21;;;;;;;5.38;2.85;;;21.60;91.40;;;;;;5046017;28;20036;-76